Time;durP1;ratioP1;P1;durP2;ratioP2;P2;SDS_P1;SDS_P2;PMS_P1;PMS_P2;Temp;Humidity;BMP_temperature;BMP_pressure;BME280_temperature;BME280_humidity;BME280_pressure;Samples;Min_cycle;Max_cycle;Signal;HPM_P1;HPM_P2
2023/01/22 00:02:20;;;;;;;6.10;3.97;;;;;;;1.66;100.00;102171.53;6183910;23;20169;-69
2023/01/22 00:04:49;;;;;;;3.03;2.40;;;;;;;1.65;100.00;102175.16;6183920;23;20170;-69
2023/01/22 00:07:20;;;;;;;6.63;4.35;;;;;;;1.72;100.00;102179.09;6186583;23;20173;-67
2023/01/22 00:09:49;;;;;;;7.00;3.70;;;;;;;1.68;100.00;102174.94;6187695;23;20173;-70
2023/01/22 00:12:18;;;;;;;6.88;4.45;;;;;;;1.67;100.00;102175.91;6189049;23;20193;-69
2023/01/22 00:14:48;;;;;;;7.03;3.55;;;;;;;1.67;100.00;102173.25;6191541;23;20181;-69
2023/01/22 00:17:17;;;;;;;7.25;4.10;;;;;;;1.75;100.00;102176.19;6191524;23;20158;-69
2023/01/22 00:19:47;;;;;;;5.05;3.40;;;;;;;1.73;100.00;102175.47;6190177;23;20193;-70
2023/01/22 00:22:16;;;;;;;4.22;3.50;;;;;;;1.64;100.00;102173.47;6191164;23;20244;-70
2023/01/22 00:24:46;;;;;;;5.47;4.43;;;;;;;1.65;100.00;102177.81;6191331;23;20142;-70
2023/01/22 00:27:16;;;;;;;5.78;3.80;;;;;;;1.65;100.00;102177.81;6188260;23;20610;-70
2023/01/22 00:29:45;;;;;;;9.13;4.40;;;;;;;1.65;100.00;102173.34;6186760;23;20169;-69
2023/01/22 00:32:14;;;;;;;6.07;5.28;;;;;;;1.67;100.00;102175.91;6193865;23;20181;-71
2023/01/22 00:34:51;;;;;;;8.48;4.22;;;;;;;1.70;100.00;102173.84;6196551;23;20181;-70
2023/01/22 00:37:20;;;;;;;5.90;3.88;;;;;;;1.61;100.00;102171.03;6196404;23;20244;-68
2023/01/22 00:39:51;;;;;;;5.35;3.53;;;;;;;1.65;100.00;102169.81;6192436;23;20173;-71
2023/01/22 00:42:22;;;;;;;5.30;4.10;;;;;;;1.68;100.00;102182.97;6185609;23;20170;-67
2023/01/22 00:44:51;;;;;;;6.30;3.55;;;;;;;1.69;100.00;102176.66;6186196;23;20170;-71
2023/01/22 00:47:20;;;;;;;7.90;4.13;;;;;;;1.65;100.00;102178.69;6186768;23;20178;-68
2023/01/22 00:49:49;;;;;;;6.53;4.07;;;;;;;1.67;100.00;102181.25;6185563;23;20628;-68
2023/01/22 00:52:18;;;;;;;4.63;3.67;;;;;;;1.60;100.00;102177.31;6186615;23;20190;-69
2023/01/22 00:54:48;;;;;;;6.50;4.05;;;;;;;1.60;100.00;102187.97;6185309;23;20235;-69
2023/01/22 00:57:20;;;;;;;7.85;5.22;;;;;;;1.58;100.00;102176.59;6185217;23;20201;-70
2023/01/22 00:59:51;;;;;;;6.50;3.92;;;;;;;1.54;100.00;102180.47;6184844;23;20641;-69
2023/01/22 01:02:20;;;;;;;6.18;4.20;;;;;;;1.55;100.00;102175.00;6184631;23;20166;-69
2023/01/22 01:04:49;;;;;;;7.18;4.15;;;;;;;1.48;100.00;102178.22;6184945;23;20173;-70
2023/01/22 01:07:19;;;;;;;5.05;3.25;;;;;;;1.49;100.00;102178.13;6185033;23;20168;-69
2023/01/22 01:09:48;;;;;;;6.88;3.97;;;;;;;1.46;100.00;102178.34;6184754;23;20166;-68
2023/01/22 01:12:19;;;;;;;7.03;4.75;;;;;;;1.44;100.00;102174.94;6184379;23;20180;-69
2023/01/22 01:14:49;;;;;;;5.43;4.20;;;;;;;1.47;100.00;102176.53;6184539;23;20189;-69
2023/01/22 01:17:18;;;;;;;6.15;4.57;;;;;;;1.55;100.00;102182.16;6184665;23;20169;-69
2023/01/22 01:19:47;;;;;;;7.85;3.53;;;;;;;1.51;100.00;102178.00;6184171;23;20249;-69
2023/01/22 01:22:16;;;;;;;5.43;4.13;;;;;;;1.53;100.00;102189.41;6184402;23;20599;-69
2023/01/22 01:24:46;;;;;;;6.88;4.05;;;;;;;1.57;100.00;102182.88;6185556;23;20156;-69
2023/01/22 01:27:18;;;;;;;6.47;4.03;;;;;;;1.56;100.00;102189.19;6184469;23;20246;-69
2023/01/22 01:29:47;;;;;;;4.45;3.47;;;;;;;1.60;100.00;102182.66;6184458;23;20221;-68
2023/01/22 01:32:16;;;;;;;12.35;4.65;;;;;;;1.60;100.00;102185.31;6185110;23;20248;-69
2023/01/22 01:34:46;;;;;;;4.00;3.67;;;;;;;1.54;100.00;102189.31;6186603;23;20630;-69
2023/01/22 01:37:16;;;;;;;3.72;2.90;;;;;;;1.59;100.00;102194.31;6185070;23;20169;-71
2023/01/22 01:39:46;;;;;;;6.95;3.40;;;;;;;1.56;100.00;102189.19;6186232;23;20700;-68
2023/01/22 01:42:21;;;;;;;5.43;3.33;;;;;;;1.62;100.00;102199.41;6184538;23;20168;-71
2023/01/22 01:45:42;;;;;;;6.10;4.47;;;;;;;1.56;100.00;102191.84;6184557;23;20697;-70
2023/01/22 01:48:31;;;;;;;6.05;3.22;;;;;;;1.56;100.00;102192.72;6184132;23;20185;-70
2023/01/22 01:51:06;;;;;;;3.97;3.10;;;;;;;1.57;100.00;102199.75;6184538;23;20177;-69
2023/01/22 01:53:36;;;;;;;3.95;3.60;;;;;;;1.56;100.00;102194.53;6184293;23;20172;-68
2023/01/22 01:56:11;;;;;;;6.47;4.50;;;;;;;1.54;100.00;102201.81;6184192;23;20205;-68
2023/01/22 01:58:42;;;;;;;4.22;3.58;;;;;;;1.57;100.00;102204.22;6184498;23;20169;-69
2023/01/22 02:01:15;;;;;;;3.38;3.05;;;;;;;1.53;100.00;102202.75;6191869;23;20161;-69
2023/01/22 02:03:47;;;;;;;4.00;3.60;;;;;;;1.55;100.00;102207.00;6191951;23;20157;-70
2023/01/22 02:06:19;;;;;;;4.57;4.05;;;;;;;1.49;100.00;102203.94;6190345;23;20568;-69
2023/01/22 02:08:50;;;;;;;5.07;3.00;;;;;;;1.50;100.00;102203.00;6188894;23;20232;-70
2023/01/22 02:11:20;;;;;;;4.38;3.13;;;;;;;1.48;100.00;102215.59;6185616;23;20153;-69
2023/01/22 02:13:53;;;;;;;6.03;3.80;;;;;;;1.52;100.00;102209.06;6184093;23;20610;-68
2023/01/22 02:16:23;;;;;;;4.80;3.17;;;;;;;1.48;100.00;102223.59;6185858;23;20193;-69
2023/01/22 02:18:54;;;;;;;4.85;3.42;;;;;;;1.48;100.00;102223.59;6183685;23;20613;-70
2023/01/22 02:21:35;;;;;;;4.85;4.07;;;;;;;1.44;100.00;102222.09;6184147;23;20169;-70
2023/01/22 02:24:06;;;;;;;3.95;3.47;;;;;;;1.46;100.00;102228.16;6184336;23;20177;-70
2023/01/22 02:26:36;;;;;;;5.80;3.72;;;;;;;1.49;100.00;102223.47;6184372;23;20194;-71
2023/01/22 02:29:06;;;;;;;5.85;4.30;;;;;;;1.48;100.00;102226.25;6184138;23;20173;-68
2023/01/22 02:31:37;;;;;;;4.28;3.97;;;;;;;1.56;100.00;102223.88;6184217;23;20172;-71
2023/01/22 02:34:08;;;;;;;3.78;3.10;;;;;;;1.60;100.00;102222.69;6183824;23;20176;-70
2023/01/22 02:36:40;;;;;;;4.15;3.45;;;;;;;1.60;100.00;102228.88;6183528;23;20189;-70
2023/01/22 02:39:09;;;;;;;4.53;3.90;;;;;;;1.50;100.00;102224.34;6184107;23;20161;-69
2023/01/22 02:41:39;;;;;;;4.97;4.05;;;;;;;1.47;100.00;102221.88;6184272;23;20200;-70
2023/01/22 02:44:11;;;;;;;3.80;3.35;;;;;;;1.48;100.00;102218.25;6184426;23;20172;-69
2023/01/22 02:46:42;;;;;;;4.10;3.70;;;;;;;1.44;100.00;102222.09;6184518;23;20208;-69
2023/01/22 02:49:12;;;;;;;4.28;3.05;;;;;;;1.43;100.00;102204.38;6186965;23;20150;-72
2023/01/22 02:51:43;;;;;;;5.13;3.53;;;;;;;1.43;100.00;102215.06;6185656;23;20173;-71
2023/01/22 02:54:13;;;;;;;3.88;2.95;;;;;;;1.46;100.00;102220.16;6186579;23;20161;-70
2023/01/22 02:56:42;;;;;;;3.83;3.15;;;;;;;1.43;100.00;102213.25;6192655;23;20197;-69
2023/01/22 02:59:11;;;;;;;3.08;2.17;;;;;;;1.44;100.00;102211.44;6195444;23;20165;-70
2023/01/22 03:01:41;;;;;;;3.75;3.00;;;;;;;1.43;100.00;102213.25;6197364;23;20228;-69
2023/01/22 03:04:10;;;;;;;4.10;3.15;;;;;;;1.40;100.00;102213.47;6188123;23;20180;-71
2023/01/22 03:06:41;;;;;;;9.82;3.47;;;;;;;1.45;100.00;102214.00;6183453;23;20212;-70
2023/01/22 03:09:13;;;;;;;6.68;4.15;;;;;;;1.44;100.00;102216.78;6183440;23;20177;-69
2023/01/22 03:11:48;;;;;;;3.30;2.85;;;;;;;1.41;100.00;102211.63;6183502;23;20244;-69
2023/01/22 03:22:48;;;;;;;3.53;3.22;;;;;;;1.42;100.00;102230.22;6183545;23;20185;-68
2023/01/22 03:25:19;;;;;;;3.72;2.60;;;;;;;1.39;100.00;102227.78;6183434;23;20217;-69
2023/01/22 03:30:38;;;;;;;2.85;2.40;;;;;;;1.39;100.00;102226.91;6183092;23;20569;-70
2023/01/22 03:33:08;;;;;;;2.95;2.70;;;;;;;1.40;100.00;102229.50;6183303;23;20184;-69
2023/01/22 03:35:38;;;;;;;3.22;2.72;;;;;;;1.39;100.00;102229.59;6182958;23;20212;-70
2023/01/22 03:38:16;;;;;;;4.80;2.85;;;;;;;1.42;100.00;102229.34;6183448;23;20179;-70
2023/01/22 03:40:47;;;;;;;2.50;2.22;;;;;;;1.40;100.00;102236.63;6182933;23;20173;-70
2023/01/22 03:43:16;;;;;;;4.00;3.45;;;;;;;1.42;100.00;102240.88;6183102;23;20625;-71
2023/01/22 03:45:45;;;;;;;6.53;4.05;;;;;;;1.39;100.00;102232.25;6182976;23;20277;-70
2023/01/22 03:48:17;;;;;;;3.97;3.05;;;;;;;1.40;100.00;102241.97;6184574;23;20165;-70
2023/01/22 03:50:48;;;;;;;3.78;2.55;;;;;;;1.44;100.00;102235.44;6184844;23;20252;-71
2023/01/22 03:53:17;;;;;;;6.57;3.78;;;;;;;1.41;100.00;102232.97;6185057;23;20196;-69
2023/01/22 03:55:56;;;;;;;4.85;4.35;;;;;;;1.44;100.00;102243.44;6184784;23;20216;-71
2023/01/22 03:58:25;;;;;;;3.60;3.30;;;;;;;1.45;100.00;102239.81;6184502;23;20169;-69
2023/01/22 04:00:56;;;;;;;4.88;3.95;;;;;;;1.51;100.00;102239.34;6186574;23;20613;-69
2023/01/22 04:03:27;;;;;;;3.88;3.20;;;;;;;1.48;100.00;102245.78;6185260;23;20170;-71
2023/01/22 04:05:59;;;;;;;3.65;2.88;;;;;;;1.54;100.00;102244.50;6184920;23;20583;-71
2023/01/22 04:08:30;;;;;;;3.72;3.42;;;;;;;1.50;100.00;102249.19;6185038;23;20169;-72
2023/01/22 04:11:02;;;;;;;7.32;3.85;;;;;;;1.45;100.00;102248.69;6184888;23;20184;-70
2023/01/22 04:13:33;;;;;;;4.28;3.88;;;;;;;1.49;100.00;102246.63;6184810;23;20162;-70
2023/01/22 04:16:03;;;;;;;3.50;3.20;;;;;;;1.48;100.00;102245.78;6185058;23;20281;-72
2023/01/22 04:18:53;;;;;;;3.67;3.25;;;;;;;1.50;100.00;102253.69;6186113;23;20173;-72
2023/01/22 04:21:34;;;;;;;3.72;3.25;;;;;;;1.46;100.00;102249.50;6184852;23;20166;-73
2023/01/22 04:24:07;;;;;;;4.13;3.70;;;;;;;1.48;100.00;102250.25;6184863;23;20223;-70
2023/01/22 04:26:38;;;;;;;4.20;3.80;;;;;;;1.53;100.00;102250.78;6184848;23;20189;-70
2023/01/22 04:29:08;;;;;;;3.80;3.30;;;;;;;1.57;100.00;102258.44;6185093;23;20170;-71
2023/01/22 04:31:37;;;;;;;5.47;4.97;;;;;;;1.57;100.00;102257.59;6184823;23;20166;-72
2023/01/22 04:34:16;;;;;;;3.60;3.30;;;;;;;1.58;100.00;102261.97;6196980;23;20188;-71
2023/01/22 04:36:50;;;;;;;5.97;4.43;;;;;;;1.62;100.00;102258.97;6184279;23;20272;-72
2023/01/22 04:39:19;;;;;;;4.30;3.90;;;;;;;1.61;100.00;102254.59;6184818;23;20173;-71
2023/01/22 04:41:50;;;;;;;6.45;4.32;;;;;;;1.58;100.00;102261.97;6184522;23;20180;-71
2023/01/22 04:44:20;;;;;;;4.38;3.97;;;;;;;1.58;100.00;102259.31;6184801;23;20169;-70
2023/01/22 04:46:50;;;;;;;5.05;3.80;;;;;;;1.64;100.00;102266.88;6184202;23;20268;-70
2023/01/22 04:49:19;;;;;;;4.70;3.92;;;;;;;1.65;100.00;102257.88;6184388;23;20517;-69
2023/01/22 04:51:52;;;;;;;4.30;3.90;;;;;;;1.63;100.00;102265.16;6184479;23;20169;-69
2023/01/22 04:54:22;;;;;;;5.93;3.70;;;;;;;1.58;100.00;102270.84;6184789;23;20574;-71
2023/01/22 04:56:52;;;;;;;4.75;4.13;;;;;;;1.62;100.00;102274.13;6184607;23;20194;-70
2023/01/22 04:59:22;;;;;;;6.35;4.65;;;;;;;1.60;100.00;102284.03;6189540;23;20161;-71
2023/01/22 05:01:51;;;;;;;5.60;4.97;;;;;;;1.65;100.00;102287.25;6185290;23;20649;-69
2023/01/22 05:04:22;;;;;;;6.07;4.72;;;;;;;1.67;100.00;102282.66;6186010;23;20507;-70
2023/01/22 05:06:52;;;;;;;6.53;4.47;;;;;;;1.64;100.00;102293.56;6185243;23;20634;-72
2023/01/22 05:09:23;;;;;;;5.13;3.95;;;;;;;1.64;100.00;102288.22;6185204;23;20169;-71
2023/01/22 05:11:56;;;;;;;6.38;5.00;;;;;;;1.70;100.00;102298.44;6185098;23;20170;-70
2023/01/22 05:14:26;;;;;;;5.00;4.15;;;;;;;1.64;100.00;102296.22;6184887;23;20168;-69
2023/01/22 05:16:56;;;;;;;5.05;4.55;;;;;;;1.72;100.00;102301.84;6185733;23;20528;-70
2023/01/22 05:19:25;;;;;;;5.60;4.85;;;;;;;1.63;100.00;102302.53;6185873;23;20628;-71
2023/01/22 05:21:54;;;;;;;5.78;4.80;;;;;;;1.67;100.00;102301.34;6184388;23;20173;-71
2023/01/22 05:24:23;;;;;;;11.50;5.75;;;;;;;1.62;100.00;102306.16;6184409;23;20169;-70
2023/01/22 05:26:55;;;;;;;4.82;4.20;;;;;;;1.64;100.00;102314.91;6184361;23;20193;-70
2023/01/22 05:29:34;;;;;;;5.20;4.60;;;;;;;1.63;100.00;102307.88;6184248;23;20981;-70
2023/01/22 05:32:18;;;;;;;7.90;4.90;;;;;;;1.61;100.00;102309.78;6183986;23;20166;-70
2023/01/22 05:34:53;;;;;;;5.15;4.65;;;;;;;1.54;100.00;102316.53;6184206;23;20203;-70
2023/01/22 05:37:23;;;;;;;5.05;4.28;;;;;;;1.58;100.00;102320.69;6183889;23;20189;-69
2023/01/22 05:39:52;;;;;;;8.05;4.88;;;;;;;1.53;100.00;102320.16;6183833;23;20669;-70
2023/01/22 05:42:23;;;;;;;4.82;4.32;;;;;;;1.54;100.00;102330.72;6184505;23;20505;-70
2023/01/22 05:44:52;;;;;;;6.88;4.88;;;;;;;1.50;100.00;102329.22;6184363;23;20208;-71
2023/01/22 05:47:24;;;;;;;8.25;5.75;;;;;;;1.55;100.00;102327.06;6184787;23;20177;-70
2023/01/22 05:50:18;;;;;;;4.65;4.25;;;;;;;1.51;100.00;102330.06;6186140;23;20232;-70
2023/01/22 05:52:47;;;;;;;7.13;5.18;;;;;;;1.45;100.00;102328.72;6184747;23;20609;-70
2023/01/22 05:55:17;;;;;;;5.22;4.15;;;;;;;1.42;100.00;102338.72;6185988;23;20199;-72
2023/01/22 05:57:48;;;;;;;7.53;4.85;;;;;;;1.44;100.00;102342.16;6185330;23;20186;-70
2023/01/22 06:00:22;;;;;;;7.80;5.28;;;;;;;1.49;100.00;102342.69;6187703;23;20170;-71
2023/01/22 06:02:58;;;;;;;6.70;4.70;;;;;;;1.45;100.00;102339.38;6197569;23;20184;-71
2023/01/22 06:05:30;;;;;;;5.50;5.00;;;;;;;1.45;100.00;102343.88;6199807;23;20194;-71
2023/01/22 06:08:05;;;;;;;5.28;3.92;;;;;;;1.44;100.00;102344.81;6198575;23;20154;-70
2023/01/22 06:10:42;;;;;;;8.73;5.57;;;;;;;1.39;100.00;102346.94;6193655;23;20183;-70
2023/01/22 06:13:13;;;;;;;4.85;4.22;;;;;;;1.47;100.00;102349.94;6191115;23;20196;-71
2023/01/22 06:15:44;;;;;;;8.00;5.10;;;;;;;1.39;100.00;102353.16;6189264;23;20194;-71
2023/01/22 06:18:34;;;;;;;5.85;5.32;;;;;;;1.39;100.00;102357.63;6189646;23;20216;-73
2023/01/22 06:21:07;;;;;;;7.10;5.22;;;;;;;1.36;100.00;102357.81;6187001;23;20172;-71
2023/01/22 06:23:36;;;;;;;6.95;5.97;;;;;;;1.37;100.00;102355.06;6186597;23;20165;-71
2023/01/22 06:26:07;;;;;;;5.15;4.65;;;;;;;1.41;100.00;102361.03;6186634;23;20208;-71
2023/01/22 06:28:38;;;;;;;7.25;5.55;;;;;;;1.38;100.00;102370.09;6186460;23;20175;-73
2023/01/22 06:31:07;;;;;;;6.75;5.35;;;;;;;1.43;100.00;102369.78;6187698;23;20181;-70
2023/01/22 06:33:40;;;;;;;6.90;4.93;;;;;;;1.40;100.00;102370.00;6188352;23;20555;-71
2023/01/22 06:36:09;;;;;;;8.55;6.28;;;;;;;1.41;100.00;102363.69;6186808;23;20268;-72
2023/01/22 06:38:39;;;;;;;5.85;5.25;;;;;;;1.38;100.00;102366.59;6187657;23;20190;-70
2023/01/22 06:41:10;;;;;;;10.25;6.10;;;;;;;1.39;100.00;102378.97;6188527;23;20173;-70
2023/01/22 06:43:40;;;;;;;8.65;5.00;;;;;;;1.42;100.00;102376.06;6185916;23;20169;-71
2023/01/22 06:46:10;;;;;;;9.10;5.82;;;;;;;1.45;100.00;102370.53;6185114;23;20193;-70
2023/01/22 06:49:12;;;;;;;7.97;5.50;;;;;;;1.40;100.00;102380.69;6185669;23;20180;-72
2023/01/22 06:51:41;;;;;;;8.38;5.82;;;;;;;1.40;100.00;102370.88;6186066;23;20170;-70
2023/01/22 06:54:13;;;;;;;5.38;4.63;;;;;;;1.39;100.00;102374.50;6190375;23;20240;-72
2023/01/22 06:56:42;;;;;;;7.20;5.55;;;;;;;1.41;100.00;102377.03;6191328;23;20194;-71
2023/01/22 06:59:15;;;;;;;7.63;5.43;;;;;;;1.45;100.00;102367.88;6192669;23;20185;-71
2023/01/22 07:01:44;;;;;;;5.88;5.18;;;;;;;1.48;100.00;102375.66;6192414;23;20169;-72
2023/01/22 07:04:13;;;;;;;9.63;6.22;;;;;;;1.41;100.00;102377.03;6191903;23;20158;-70
2023/01/22 07:06:42;;;;;;;10.32;6.25;;;;;;;1.44;100.00;102376.84;6197623;23;20193;-73
2023/01/22 07:09:11;;;;;;;6.70;5.80;;;;;;;1.46;100.00;102385.56;6194860;23;20185;-71
2023/01/22 07:11:41;;;;;;;7.60;5.10;;;;;;;1.44;100.00;102376.84;6187995;23;20181;-69
2023/01/22 07:14:10;;;;;;;6.53;5.70;;;;;;;1.42;100.00;102381.41;6188308;23;20181;-71
2023/01/22 07:17:08;;;;;;;6.75;6.05;;;;;;;1.48;100.00;102383.66;6185658;23;20193;-71
2023/01/22 07:19:37;;;;;;;7.53;6.25;;;;;;;1.49;100.00;102388.03;6185477;23;20185;-70
2023/01/22 07:22:06;;;;;;;9.27;6.43;;;;;;;1.54;100.00;102384.09;6185626;23;20165;-72
2023/01/22 07:24:35;;;;;;;8.27;6.32;;;;;;;1.48;100.00;102391.66;6185244;23;20684;-71
2023/01/22 07:27:05;;;;;;;6.50;5.28;;;;;;;1.48;100.00;102395.19;6184275;23;20197;-70
2023/01/22 07:29:34;;;;;;;6.68;5.13;;;;;;;1.56;100.00;102392.81;6183958;23;20486;-70
2023/01/22 07:32:03;;;;;;;8.93;6.25;;;;;;;1.50;100.00;102403.09;6183760;23;20209;-71
2023/01/22 07:34:36;;;;;;;7.30;6.60;;;;;;;1.48;100.00;102405.00;6183465;23;20177;-71
2023/01/22 07:37:05;;;;;;;7.40;5.88;;;;;;;1.57;100.00;102412.34;6183525;23;20193;-71
2023/01/22 07:39:35;;;;;;;7.78;6.38;;;;;;;1.56;100.00;102414.16;6183507;23;20181;-70
2023/01/22 07:42:04;;;;;;;7.97;6.88;;;;;;;1.50;100.00;102424.44;6189236;23;20169;-70
2023/01/22 07:44:35;;;;;;;7.10;5.35;;;;;;;1.55;100.00;102430.31;6189516;23;20180;-72
2023/01/22 07:47:05;;;;;;;8.93;6.75;;;;;;;1.60;100.00;102422.81;6188001;23;20194;-72
2023/01/22 07:49:36;;;;;;;6.03;5.25;;;;;;;1.62;100.00;102439.56;6188475;23;20180;-70
2023/01/22 07:52:05;;;;;;;7.43;6.20;;;;;;;1.64;100.00;102443.00;6187151;23;20168;-70
2023/01/22 07:54:35;;;;;;;6.90;5.93;;;;;;;1.72;100.00;102435.31;6189259;23;20172;-70
2023/01/22 07:57:05;;;;;;;8.30;5.90;;;;;;;1.77;100.00;102438.50;6187267;23;20201;-71
2023/01/22 07:59:36;;;;;;;6.80;5.50;;;;;;;1.73;100.00;102432.53;6186680;23;20216;-70
2023/01/22 08:02:05;;;;;;;9.27;6.70;;;;;;;1.76;100.00;102436.78;6186937;23;20492;-70
2023/01/22 08:04:36;;;;;;;7.72;6.47;;;;;;;1.70;100.00;102447.88;6186621;23;20228;-70
2023/01/22 08:07:05;;;;;;;7.40;6.68;;;;;;;1.83;100.00;102459.44;6187466;23;20195;-72
2023/01/22 08:09:37;;;;;;;7.50;6.50;;;;;;;1.85;100.00;102451.31;6189797;23;20636;-70
2023/01/22 08:12:06;;;;;;;6.97;6.28;;;;;;;1.84;100.00;102460.28;6185649;23;20233;-71
2023/01/22 08:14:35;;;;;;;7.15;6.43;;;;;;;1.80;100.00;102454.28;6184768;23;20190;-71
2023/01/22 08:17:05;;;;;;;6.85;6.15;;;;;;;1.83;100.00;102450.56;6185324;23;20193;-71
2023/01/22 08:19:35;;;;;;;7.80;5.65;;;;;;;1.78;100.00;102461.56;6186773;23;20190;-71
2023/01/22 08:22:05;;;;;;;10.23;6.78;;;;;;;1.89;100.00;102458.16;6184531;23;20178;-70
2023/01/22 08:24:35;;;;;;;7.82;6.05;;;;;;;1.88;100.00;102454.63;6184201;23;20583;-70
2023/01/22 08:27:04;;;;;;;8.13;5.90;;;;;;;1.90;100.00;102463.38;6184113;23;20193;-72
2023/01/22 08:29:33;;;;;;;9.40;6.60;;;;;;;1.88;100.00;102459.13;6185390;23;20166;-70
2023/01/22 08:32:03;;;;;;;7.65;5.63;;;;;;;1.88;100.00;102462.66;6184853;23;20173;-70
2023/01/22 08:34:32;;;;;;;10.50;6.60;;;;;;;1.88;100.00;102467.13;6186016;23;20173;-71
2023/01/22 08:37:03;;;;;;;6.00;5.28;;;;;;;1.88;100.00;102462.66;6185070;23;20481;-72
2023/01/22 08:39:33;;;;;;;8.07;6.20;;;;;;;1.85;100.00;102460.16;6185180;23;20232;-72
2023/01/22 08:42:03;;;;;;;10.60;6.80;;;;;;;1.97;100.00;102472.66;6185166;23;20173;-70
2023/01/22 08:44:32;;;;;;;6.95;5.32;;;;;;;2.00;100.00;102467.09;6185190;23;20216;-72
2023/01/22 08:47:01;;;;;;;9.88;6.30;;;;;;;1.93;100.00;102473.84;6186149;23;20192;-73
2023/01/22 08:49:31;;;;;;;8.80;6.00;;;;;;;1.87;100.00;102471.59;6190264;23;20208;-73
2023/01/22 08:52:00;;;;;;;9.70;6.47;;;;;;;1.94;100.00;102467.53;6191273;23;20170;-72
2023/01/22 08:54:30;;;;;;;6.45;5.50;;;;;;;1.92;100.00;102473.94;6189925;23;20368;-71
2023/01/22 08:57:00;;;;;;;10.68;7.13;;;;;;;2.04;100.00;102468.59;6188844;23;20197;-73
2023/01/22 08:59:29;;;;;;;10.82;7.13;;;;;;;2.07;100.00;102483.56;6185084;23;20443;-71
2023/01/22 09:01:59;;;;;;;12.00;7.70;;;;;;;1.99;100.00;102481.41;6185169;23;20492;-73
2023/01/22 09:04:28;;;;;;;6.88;6.18;;;;;;;2.10;100.00;102494.00;6184941;23;20635;-71
2023/01/22 09:06:58;;;;;;;13.52;6.90;;;;;;;2.08;100.00;102496.78;6184891;23;20185;-72
2023/01/22 09:09:29;;;;;;;10.75;7.55;;;;;;;2.09;100.00;102498.50;6184476;23;20606;-73
2023/01/22 09:11:58;;;;;;;8.48;7.07;;;;;;;2.10;100.00;102502.88;6186146;23;20552;-72
2023/01/22 09:14:27;;;;;;;8.05;6.45;;;;;;;2.09;100.00;102502.97;6184843;23;20174;-71
2023/01/22 09:16:56;;;;;;;8.27;6.03;;;;;;;2.16;100.00;102510.47;6186048;23;20189;-73
2023/01/22 09:19:26;;;;;;;9.77;7.18;;;;;;;2.11;100.00;102509.94;6184520;23;20186;-71
2023/01/22 09:21:55;;;;;;;8.95;6.53;;;;;;;2.09;100.00;102513.66;6184626;23;20197;-71
2023/01/22 09:24:24;;;;;;;8.38;7.28;;;;;;;2.06;100.00;102513.88;6188499;23;20228;-71
2023/01/22 09:26:55;;;;;;;8.63;7.75;;;;;;;2.07;100.00;102515.59;6188932;23;20200;-71
2023/01/22 09:29:24;;;;;;;9.60;7.15;;;;;;;2.02;100.00;102513.25;6190975;23;20161;-72
2023/01/22 09:31:53;;;;;;;10.25;7.70;;;;;;;2.09;100.00;102519.84;6189132;23;20521;-74
2023/01/22 09:34:23;;;;;;;13.75;8.77;;;;;;;2.06;100.00;102522.75;6187130;23;20177;-71
2023/01/22 09:36:52;;;;;;;10.95;7.47;;;;;;;2.18;100.00;102523.69;6186557;23;20193;-71
2023/01/22 09:39:21;;;;;;;10.07;7.35;;;;;;;2.17;100.00;102516.66;6188814;23;20264;-74
2023/01/22 09:41:55;;;;;;;7.40;6.50;;;;;;;2.18;100.00;102537.03;6188411;23;20738;-72
2023/01/22 09:44:32;;;;;;;7.80;6.20;;;;;;;2.18;100.00;102537.03;6187913;23;20228;-72
2023/01/22 09:47:06;;;;;;;12.20;8.07;;;;;;;2.11;99.88;102531.31;6187089;23;20239;-72
2023/01/22 09:49:43;;;;;;;8.65;5.80;;;;;;;2.16;100.00;102537.19;6184414;23;20200;-72
2023/01/22 09:52:13;;;;;;;13.80;8.32;;;;;;;2.06;100.00;102529.91;6185463;23;20165;-71
2023/01/22 09:54:42;;;;;;;8.18;6.93;;;;;;;2.13;99.87;102534.69;6186071;23;20630;-71
2023/01/22 09:57:14;;;;;;;12.68;8.85;;;;;;;2.12;99.96;102535.69;6191567;23;20212;-71
2023/01/22 09:59:59;;;;;;;8.77;7.38;;;;;;;2.10;100.00;102536.75;6184205;23;20178;-70
2023/01/22 10:02:34;;;;;;;11.07;8.75;;;;;;;2.17;100.00;102538.88;6184880;23;20189;-70
2023/01/22 10:05:20;;;;;;;8.95;8.00;;;;;;;2.15;100.00;102543.47;6185664;23;20538;-72
2023/01/22 10:07:54;;;;;;;11.52;8.05;;;;;;;2.28;100.00;102537.25;6184831;23;20165;-71
2023/01/22 10:10:52;;;;;;;11.05;7.50;;;;;;;2.36;99.44;102526.88;6184730;23;20195;-71
2023/01/22 10:13:24;;;;;;;9.73;7.35;;;;;;;2.32;98.98;102525.41;6184229;23;20165;-72
2023/01/22 10:15:55;;;;;;;8.68;7.55;;;;;;;2.31;99.09;102529.03;6184199;23;20193;-70
2023/01/22 10:18:33;;;;;;;7.07;6.38;;;;;;;2.34;98.57;102529.66;6184175;23;20168;-70
2023/01/22 10:21:06;;;;;;;8.73;6.00;;;;;;;2.26;98.40;102532.03;6183976;23;20181;-71
2023/01/22 10:23:35;;;;;;;11.27;7.38;;;;;;;2.32;99.13;102530.75;6184247;23;20165;-70
2023/01/22 10:26:16;;;;;;;12.88;7.55;;;;;;;2.31;98.87;102531.72;6183802;23;20584;-70
2023/01/22 10:28:50;;;;;;;8.82;7.15;;;;;;;2.35;98.35;102533.19;6186209;23;20543;-70
2023/01/22 10:31:26;;;;;;;9.13;7.20;;;;;;;2.35;98.14;102535.88;6183836;23;20216;-69
2023/01/22 10:34:00;;;;;;;15.77;8.40;;;;;;;2.25;97.76;102535.66;6184263;23;20169;-71
2023/01/22 10:36:30;;;;;;;11.35;7.47;;;;;;;2.28;97.91;102534.56;6184349;23;20531;-69
2023/01/22 10:39:12;;;;;;;12.27;7.80;;;;;;;2.31;98.13;102537.06;6183884;23;20165;-70
2023/01/22 10:41:42;;;;;;;9.32;7.05;;;;;;;2.34;97.59;102529.66;6183897;23;20576;-72
2023/01/22 10:44:21;;;;;;;10.23;7.57;;;;;;;2.45;97.87;102537.78;6185488;23;20169;-70
2023/01/22 10:46:51;;;;;;;13.95;8.55;;;;;;;2.46;96.97;102533.28;6183804;23;20197;-70
2023/01/22 10:49:23;;;;;;;8.95;7.60;;;;;;;2.36;97.56;102540.25;6183757;23;20227;-70
2023/01/22 10:51:55;;;;;;;8.07;6.45;;;;;;;2.35;98.06;102536.72;6183862;23;20196;-70
2023/01/22 10:54:30;;;;;;;13.10;7.65;;;;;;;2.36;97.60;102542.91;6183799;23;20165;-69
2023/01/22 10:57:10;;;;;;;10.70;7.72;;;;;;;2.40;98.20;102539.06;6183710;23;20199;-71
2023/01/22 10:59:47;;;;;;;8.82;6.95;;;;;;;2.31;98.05;102540.59;6183678;23;20185;-70
2023/01/22 11:02:21;;;;;;;11.98;8.18;;;;;;;2.31;98.58;102550.41;6183951;23;20227;-70
2023/01/22 11:04:51;;;;;;;10.93;7.60;;;;;;;2.28;98.00;102534.56;6183776;23;20511;-69
2023/01/22 11:07:24;;;;;;;12.73;9.30;;;;;;;2.19;98.95;102536.94;6183885;23;20177;-71
2023/01/22 11:10:09;;;;;;;13.15;7.95;;;;;;;2.32;99.87;102528.94;6183608;23;20173;-70
2023/01/22 11:12:44;;;;;;;10.93;7.57;;;;;;;2.32;98.58;102536.09;6184981;23;20503;-69
2023/01/22 11:15:22;;;;;;;11.40;8.55;;;;;;;2.40;98.56;102528.38;6183431;23;20196;-70
2023/01/22 11:17:53;;;;;;;11.55;8.02;;;;;;;2.39;98.39;102542.69;6183939;23;20165;-70
2023/01/22 11:20:26;;;;;;;10.23;7.43;;;;;;;2.39;98.37;102532.00;6184124;23;20537;-71
2023/01/22 11:23:05;;;;;;;9.65;7.85;;;;;;;2.36;98.58;102537.56;6183948;23;20184;-68
2023/01/22 11:25:42;;;;;;;13.63;9.25;;;;;;;2.41;98.86;102538.09;6183837;23;20289;-69
2023/01/22 11:28:25;;;;;;;9.60;8.48;;;;;;;2.37;98.49;102549.97;6183974;23;20239;-72
2023/01/22 11:31:29;;;;;;;12.95;8.65;;;;;;;2.43;98.35;102530.81;6184443;23;20185;-70
2023/01/22 11:34:23;;;;;;;12.77;7.28;;;;;;;2.44;98.69;102530.72;6185481;23;20184;-70
2023/01/22 11:37:00;;;;;;;10.60;9.02;;;;;;;2.36;97.93;102533.09;6179132;23;20193;-70
2023/01/22 11:39:51;;;;;;;13.25;10.60;;;;;;;2.38;98.46;102532.97;6184257;23;20165;-70
2023/01/22 11:42:32;;;;;;;8.30;7.10;;;;;;;2.42;98.88;102526.47;6186699;23;20157;-69
2023/01/22 11:45:25;;;;;;;13.75;9.70;;;;;;;2.41;98.70;102530.94;6185008;23;20166;-71
2023/01/22 11:48:14;;;;;;;14.65;9.13;;;;;;;2.36;98.71;102533.09;6183829;23;20515;-70
2023/01/22 11:50:52;;;;;;;11.15;8.63;;;;;;;2.42;98.99;102537.16;6183812;23;20173;-71
2023/01/22 11:53:43;;;;;;;13.45;10.27;;;;;;;2.40;98.85;102533.72;6183564;23;20184;-70
2023/01/22 11:56:36;;;;;;;15.93;10.95;;;;;;;2.41;98.43;102527.41;6186479;23;20212;-69
2023/01/22 11:59:11;;;;;;;11.80;9.32;;;;;;;2.26;98.89;102532.03;6188629;23;20546;-71
2023/01/22 12:02:01;;;;;;;10.82;8.88;;;;;;;2.23;99.24;102531.41;6191467;23;20176;-71